createdAt,value
2023-01-05T00:01:47.107Z,98753.06
2023-01-05T00:04:14.436Z,98763.06
2023-01-05T00:06:41.386Z,98753.06
2023-01-05T00:09:12.508Z,98759.22
2023-01-05T00:11:57.242Z,98754.63
2023-01-05T00:15:01.644Z,98757.66
2023-01-05T00:17:46.911Z,98745.31
2023-01-05T00:20:37.961Z,98739.59
2023-01-05T00:23:04.892Z,98733.72
2023-01-05T00:25:36.504Z,98742.13
2023-01-05T00:28:03.140Z,98748.34
2023-01-05T00:30:33.220Z,98734.06
2023-01-05T00:32:59.831Z,98732.19
2023-01-05T00:35:26.447Z,98729.91
2023-01-05T00:37:52.966Z,98723.09
2023-01-05T00:40:21.463Z,98724.34
2023-01-05T00:42:50.196Z,98723.22
2023-01-05T00:45:18.834Z,98719.03
2023-01-05T00:47:45.545Z,98719.84
2023-01-05T00:50:17.709Z,98709.50
2023-01-05T00:52:46.989Z,98711.09
2023-01-05T00:55:14.449Z,98707.28
2023-01-05T00:57:43.201Z,98707.41
2023-01-05T01:00:16.151Z,98710.22
2023-01-05T01:02:43.012Z,98705.94
2023-01-05T01:05:10.040Z,98710.66
2023-01-05T01:07:36.562Z,98712.25
2023-01-05T01:10:03.738Z,98705.75
2023-01-05T01:12:38.475Z,98707.63
2023-01-05T01:15:06.214Z,98716.19
2023-01-05T01:17:33.560Z,98710.25
2023-01-05T01:20:00.647Z,98710.34
2023-01-05T01:22:27.302Z,98710.69
2023-01-05T01:24:53.986Z,98717.19
2023-01-05T01:27:22.322Z,98721.03
2023-01-05T01:29:48.887Z,98730.66
2023-01-05T01:32:15.386Z,98731.13
2023-01-05T01:34:47.106Z,98727.28
2023-01-05T01:37:13.605Z,98727.75
2023-01-05T01:39:40.133Z,98732.38
2023-01-05T01:42:07.185Z,98720.78
2023-01-05T01:45:01.718Z,98725.84
2023-01-05T01:47:41.470Z,98718.56
2023-01-05T01:50:19.275Z,98725.50
2023-01-05T01:52:52.236Z,98726.66
2023-01-05T01:55:21.516Z,98727.75
2023-01-05T01:57:49.744Z,98725.06
2023-01-05T02:00:19.635Z,98726.66
2023-01-05T02:02:48.666Z,98718.56
2023-01-05T02:05:18.105Z,98727.44
2023-01-05T02:07:49.117Z,98722.03
2023-01-05T02:10:21.940Z,98717.41
2023-01-05T02:13:16.474Z,98712.16
2023-01-05T02:16:03.170Z,98707.88
2023-01-05T02:18:59.140Z,98713.75
2023-01-05T02:21:42.868Z,98714.50
2023-01-05T02:24:24.745Z,98709.56
2023-01-05T02:27:15.437Z,98693.38
2023-01-05T02:30:13.480Z,98700.34
2023-01-05T02:32:54.949Z,98700.03
2023-01-05T02:35:35.300Z,98696.53
2023-01-05T02:38:15.620Z,98693.38
2023-01-05T02:40:55.570Z,98692.28
2023-01-05T02:43:22.313Z,98692.28
2023-01-05T02:45:49.580Z,98683.06
2023-01-05T02:48:16.504Z,98686.09
2023-01-05T02:50:44.837Z,98677.22
2023-01-05T02:53:25.460Z,98686.78
2023-01-05T02:56:00.873Z,98683.75
2023-01-05T02:58:33.387Z,98680.59
2023-01-05T03:01:11.998Z,98670.59
2023-01-05T03:03:43.119Z,98670.94
2023-01-05T03:06:16.684Z,98658.13
2023-01-05T03:08:56.299Z,98663.50
2023-01-05T03:11:46.202Z,98662.72
2023-01-05T03:14:20.651Z,98668.47
2023-01-05T03:16:50.035Z,98651.81
2023-01-05T03:19:41.480Z,98653.97
2023-01-05T03:22:48.849Z,98653.53
2023-01-05T03:25:37.549Z,98656.66
2023-01-05T03:28:27.303Z,98653.63
2023-01-05T03:31:30.387Z,98658.34
2023-01-05T03:34:45.297Z,98653.41
2023-01-05T03:37:20.313Z,98651.63
2023-01-05T03:39:47.639Z,98644.66
2023-01-05T03:42:16.049Z,98643.88
2023-01-05T03:44:47.413Z,98641.50
2023-01-05T03:47:14.665Z,98631.06
2023-01-05T03:49:41.784Z,98635.22
2023-01-05T03:52:08.467Z,98629.84
2023-01-05T03:54:34.942Z,98630.59
2023-01-05T03:57:01.463Z,98636.78
2023-01-05T03:59:29.685Z,98646.09
2023-01-05T04:01:58.340Z,98641.59
2023-01-05T04:04:24.892Z,98651.72
2023-01-05T04:06:51.620Z,98653.50
2023-01-05T04:09:18.114Z,98648.66
2023-01-05T04:11:49.233Z,98653.72
2023-01-05T04:14:16.230Z,98650.69
2023-01-05T04:16:42.752Z,98649.22
2023-01-05T04:19:10.494Z,98651.69
2023-01-05T04:21:45.271Z,98656.06
2023-01-05T04:24:12.805Z,98653.13
2023-01-05T04:26:39.536Z,98651.75
2023-01-05T04:29:06.413Z,98646.91
2023-01-05T04:31:32.919Z,98654.91
2023-01-05T04:33:59.656Z,98641.88
2023-01-05T04:36:26.391Z,98644.22
2023-01-05T04:38:52.898Z,98639.91
2023-01-05T04:41:19.465Z,98648.53
2023-01-05T04:43:53.545Z,98647.63
2023-01-05T04:46:20.084Z,98649.63
2023-01-05T04:48:46.828Z,98650.41
2023-01-05T04:51:15.054Z,98654.78
2023-01-05T04:53:41.868Z,98662.28
2023-01-05T04:56:08.348Z,98662.47
2023-01-05T04:58:36.596Z,98653.34
2023-01-05T05:01:03.459Z,98651.94
2023-01-05T05:03:33.204Z,98652.41
2023-01-05T05:06:04.849Z,98653.53
2023-01-05T05:08:31.347Z,98646.72
2023-01-05T05:10:57.911Z,98647.53
2023-01-05T05:13:26.109Z,98657.63
2023-01-05T05:15:54.915Z,98652.59
2023-01-05T05:18:22.231Z,98655.00
2023-01-05T05:20:51.818Z,98658.94
2023-01-05T05:23:19.036Z,98662.41
2023-01-05T05:25:45.915Z,98670.97
2023-01-05T05:28:12.626Z,98661.75
2023-01-05T05:30:39.093Z,98664.88
2023-01-05T05:33:06.153Z,98672.97
2023-01-05T05:35:34.656Z,98670.28
2023-01-05T05:38:01.445Z,98663.28
2023-01-05T05:40:29.220Z,98649.78
2023-01-05T05:42:55.825Z,98655.13
2023-01-05T05:45:22.311Z,98659.94
2023-01-05T05:47:49.024Z,98663.06
2023-01-05T05:50:17.414Z,98664.63
2023-01-05T05:52:43.979Z,98665.56
2023-01-05T05:55:10.578Z,98666.03
2023-01-05T05:57:37.216Z,98674.91
2023-01-05T06:00:04.970Z,98663.38
2023-01-05T06:02:31.555Z,98663.31
2023-01-05T06:05:10.167Z,98676.38
2023-01-05T06:07:36.646Z,98672.50
2023-01-05T06:10:03.188Z,98676.84
2023-01-05T06:12:29.993Z,98682.78
2023-01-05T06:14:56.844Z,98685.13
2023-01-05T06:17:23.327Z,98690.09
2023-01-05T06:19:49.991Z,98688.78
2023-01-05T06:22:16.494Z,98686.34
2023-01-05T06:24:42.974Z,98694.38
2023-01-05T06:27:18.578Z,98690.19
2023-01-05T06:29:45.053Z,98699.16
2023-01-05T06:32:11.536Z,98698.81
2023-01-05T06:34:39.811Z,98690.34
2023-01-05T06:37:06.524Z,98695.00
2023-01-05T06:39:35.037Z,98695.00
2023-01-05T06:42:01.629Z,98691.94
2023-01-05T06:44:28.222Z,98695.75
2023-01-05T06:46:54.843Z,98689.59
2023-01-05T06:49:23.068Z,98686.78
2023-01-05T06:51:49.955Z,98692.97
2023-01-05T06:54:16.548Z,98692.53
2023-01-05T06:56:46.097Z,98691.31
2023-01-05T06:59:12.900Z,98695.59
2023-01-05T07:01:39.789Z,98700.66
2023-01-05T07:04:06.808Z,98701.00
2023-01-05T07:06:36.072Z,98697.59
2023-01-05T07:09:03.308Z,98707.81
2023-01-05T07:11:30.091Z,98701.59
2023-01-05T07:13:58.813Z,98700.63
2023-01-05T07:16:25.454Z,98703.50
2023-01-05T07:18:53.768Z,98704.66
2023-01-05T07:21:20.269Z,98698.81
2023-01-05T07:23:47.000Z,98706.22
2023-01-05T07:26:13.785Z,98700.47
2023-01-05T07:28:40.377Z,98713.22
2023-01-05T07:31:09.787Z,98717.84
2023-01-05T07:33:40.427Z,98708.94
2023-01-05T07:36:07.711Z,98705.44
2023-01-05T07:38:34.463Z,98715.50
2023-01-05T07:41:04.315Z,98715.81
2023-01-05T07:43:30.944Z,98726.31
2023-01-05T07:46:03.802Z,98712.16
2023-01-05T07:48:33.554Z,98726.19
2023-01-05T07:51:04.581Z,98729.78
2023-01-05T07:53:36.787Z,98732.06
2023-01-05T07:56:15.061Z,98736.66
2023-01-05T07:58:42.519Z,98735.81
2023-01-05T08:01:12.836Z,98740.06
2023-01-05T08:03:40.088Z,98750.53
2023-01-05T08:06:11.932Z,98749.41
2023-01-05T08:08:38.742Z,98763.38
2023-01-05T08:11:06.764Z,98770.81
2023-01-05T08:13:54.422Z,98768.25
2023-01-05T08:16:23.551Z,98770.44
2023-01-05T08:18:50.108Z,98756.66
2023-01-05T08:21:16.726Z,98758.19
2023-01-05T08:23:45.205Z,98766.16
2023-01-05T08:26:14.324Z,98760.38
2023-01-05T08:28:41.322Z,98768.50
2023-01-05T08:31:15.582Z,98770.19
2023-01-05T08:33:42.835Z,98780.66
2023-01-05T08:36:14.214Z,98785.00
2023-01-05T08:38:48.345Z,98785.81
2023-01-05T08:41:23.856Z,98781.16
2023-01-05T08:44:00.761Z,98784.38
2023-01-05T08:46:30.074Z,98791.38
2023-01-05T08:48:58.583Z,98782.91
2023-01-05T08:51:25.709Z,98790.31
2023-01-05T08:53:54.168Z,98785.41
2023-01-05T08:56:21.735Z,98797.13
2023-01-05T08:58:50.408Z,98791.34
2023-01-05T09:01:18.703Z,98800.28
2023-01-05T09:03:45.655Z,98811.09
2023-01-05T09:06:21.293Z,98799.81
2023-01-05T09:08:48.665Z,98808.03
2023-01-05T09:11:30.083Z,98805.69
2023-01-05T09:13:58.788Z,98813.47
2023-01-05T09:19:17.662Z,98819.03
2023-01-05T09:21:46.660Z,98826.81
2023-01-05T09:24:15.409Z,98827.22
2023-01-05T09:26:43.086Z,98841.22
2023-01-05T09:29:10.419Z,98841.97
2023-01-05T09:31:37.017Z,98851.69
2023-01-05T09:34:03.832Z,98851.84
2023-01-05T09:36:30.525Z,98854.09
2023-01-05T09:38:57.242Z,98831.44
2023-01-05T09:41:30.540Z,98837.34
2023-01-05T09:44:02.547Z,98846.97
2023-01-05T09:46:40.426Z,98845.81
2023-01-05T09:49:13.414Z,98842.06
2023-01-05T09:51:48.689Z,98840.25
2023-01-05T09:54:17.638Z,98841.69
2023-01-05T09:59:39.338Z,98850.81
2023-01-05T10:02:32.307Z,98846.97
2023-01-05T10:05:02.529Z,98841.34
2023-01-05T10:07:47.772Z,98849.69
2023-01-05T10:10:36.484Z,98849.69
2023-01-05T10:13:07.779Z,98841.84
2023-01-05T10:15:43.913Z,98839.84
2023-01-05T10:18:21.063Z,98836.41
2023-01-05T10:21:03.411Z,98834.78
2023-01-05T10:23:42.343Z,98839.41
2023-01-05T10:26:22.718Z,98826.50
2023-01-05T10:29:04.376Z,98840.31
2023-01-05T10:31:57.709Z,98825.13
2023-01-05T10:34:55.562Z,98831.81
2023-01-05T10:37:34.634Z,98818.38
2023-01-05T10:40:32.748Z,98822.09
2023-01-05T10:43:11.423Z,98822.78
2023-01-05T10:45:57.313Z,98816.53
2023-01-05T10:48:31.232Z,98821.13
2023-01-05T10:50:58.149Z,98813.09
2023-01-05T10:53:26.785Z,98814.13
2023-01-05T10:59:13.471Z,98802.63
2023-01-05T11:01:45.882Z,98809.28
2023-01-05T11:04:33.983Z,98805.50
2023-01-05T11:07:06.087Z,98805.34
2023-01-05T11:09:46.147Z,98808.09
2023-01-05T11:12:21.329Z,98812.38
2023-01-05T11:14:59.148Z,98803.81
2023-01-05T11:17:28.428Z,98814.22
2023-01-05T11:19:57.180Z,98809.22
2023-01-05T11:22:31.349Z,98808.81
2023-01-05T11:25:23.806Z,98797.38
2023-01-05T11:28:13.283Z,98795.38
2023-01-05T11:30:47.117Z,98792.66
2023-01-05T11:33:25.943Z,98796.25
2023-01-05T11:35:52.932Z,98797.81
2023-01-05T11:38:23.739Z,98805.50
2023-01-05T11:40:52.547Z,98802.38
2023-01-05T11:43:21.631Z,98793.81
2023-01-05T11:45:57.815Z,98796.97
2023-01-05T11:48:28.965Z,98784.91
2023-01-05T11:50:57.141Z,98779.84
2023-01-05T11:53:40.595Z,98772.16
2023-01-05T11:56:28.387Z,98776.22
2023-01-05T11:59:00.293Z,98771.13
2023-01-05T12:02:17.344Z,98774.78
2023-01-05T12:05:24.248Z,98765.22
2023-01-05T12:07:56.512Z,98765.94
2023-01-05T12:10:50.560Z,98758.88
2023-01-05T12:13:23.135Z,98762.59
2023-01-05T12:16:12.165Z,98758.19
2023-01-05T12:19:01.555Z,98758.38
2023-01-05T12:21:38.818Z,98755.72
2023-01-05T12:24:17.409Z,98755.34
2023-01-05T12:26:54.444Z,98752.81
2023-01-05T12:31:13.100Z,98759.78
2023-01-05T12:33:44.503Z,98759.53
2023-01-05T12:36:08.629Z,98752.59
2023-01-05T12:39:07.473Z,98755.69
2023-01-05T12:42:11.463Z,98762.69
2023-01-05T12:45:07.135Z,98762.59
2023-01-05T12:47:52.385Z,98767.50
2023-01-05T12:53:31.719Z,98756.06
2023-01-05T12:56:12.951Z,98753.78
2023-01-05T12:58:52.115Z,98752.72
2023-01-05T13:01:30.459Z,98753.63
2023-01-05T13:04:05.419Z,98753.09
2023-01-05T13:06:39.489Z,98750.56
2023-01-05T13:09:32.612Z,98760.81
2023-01-05T13:12:06.926Z,98762.75
2023-01-05T13:14:55.308Z,98762.47
2023-01-05T13:17:30.881Z,98755.53
2023-01-05T13:20:07.368Z,98764.81
2023-01-05T13:22:39.359Z,98756.13
2023-01-05T13:25:23.639Z,98757.53
2023-01-05T13:27:50.221Z,98747.31
2023-01-05T13:30:33.104Z,98755.38
2023-01-05T13:33:38.051Z,98747.59
2023-01-05T13:36:07.376Z,98749.66
2023-01-05T13:39:12.789Z,98742.84
2023-01-05T13:42:04.799Z,98744.53
2023-01-05T13:44:31.231Z,98736.13
2023-01-05T13:47:03.484Z,98741.59
2023-01-05T13:49:36.172Z,98741.66
2023-01-05T13:52:10.703Z,98741.66
2023-01-05T13:55:02.250Z,98740.19
2023-01-05T13:57:36.495Z,98740.25
2023-01-05T14:00:19.911Z,98742.66
2023-01-05T14:03:06.959Z,98742.28
2023-01-05T14:05:42.784Z,98749.19
2023-01-05T14:08:18.650Z,98758.91
2023-01-05T14:11:19.543Z,98755.38
2023-01-05T14:13:55.883Z,98752.16
2023-01-05T14:16:40.597Z,98753.22
2023-01-05T14:19:21.580Z,98748.22
2023-01-05T14:21:53.451Z,98746.66
2023-01-05T14:27:17.007Z,98755.44
2023-01-05T14:32:43.824Z,98754.41
2023-01-05T14:35:30.612Z,98752.72
2023-01-05T14:38:03.660Z,98756.16
2023-01-05T14:40:46.036Z,98758.03
2023-01-05T14:43:34.330Z,98757.63
2023-01-05T14:46:09.452Z,98761.34
2023-01-05T14:48:47.454Z,98760.78
2023-01-05T14:51:26.995Z,98765.34
2023-01-05T14:53:57.542Z,98758.66
2023-01-05T14:56:27.589Z,98762.78
2023-01-05T14:59:07.500Z,98759.56
2023-01-05T15:04:20.415Z,98759.53
2023-01-05T15:06:59.561Z,98761.00
2023-01-05T15:09:45.354Z,98765.53
2023-01-05T15:12:38.099Z,98759.97
2023-01-05T15:15:29.563Z,98761.44
2023-01-05T15:18:07.570Z,98767.91
2023-01-05T15:20:53.252Z,98757.38
2023-01-05T15:23:33.389Z,98762.34
2023-01-05T15:26:26.765Z,98764.19
2023-01-05T15:29:35.110Z,98756.38
2023-01-05T15:32:23.463Z,98762.50
2023-01-05T15:34:56.461Z,98760.16
2023-01-05T15:37:38.194Z,98766.63
2023-01-05T15:40:27.278Z,98768.09
2023-01-05T15:43:03.210Z,98767.25
2023-01-05T15:45:36.100Z,98777.59
2023-01-05T15:48:09.565Z,98777.84
2023-01-05T15:50:48.444Z,98786.22
2023-01-05T15:53:29.681Z,98788.06
2023-01-05T15:55:57.493Z,98791.84
2023-01-05T15:58:26.133Z,98790.16
2023-01-05T16:01:13.703Z,98793.13
2023-01-05T16:03:43.605Z,98791.13
2023-01-05T16:06:31.421Z,98791.72
2023-01-05T16:09:07.539Z,98794.25
2023-01-05T16:11:40.754Z,98798.03
2023-01-05T16:14:28.728Z,98795.56
2023-01-05T16:17:02.301Z,98787.28
2023-01-05T16:19:43.676Z,98792.94
2023-01-05T16:22:17.897Z,98794.44
2023-01-05T16:24:55.633Z,98796.28
2023-01-05T16:27:22.688Z,98795.03
2023-01-05T16:29:49.597Z,98790.34
2023-01-05T16:32:39.611Z,98796.41
2023-01-05T16:35:43.500Z,98792.84
2023-01-05T16:38:09.953Z,98790.81
2023-01-05T16:40:40.659Z,98792.31
2023-01-05T16:43:38.396Z,98788.38
2023-01-05T16:46:28.198Z,98790.63
2023-01-05T16:49:27.297Z,98794.50
2023-01-05T16:51:55.995Z,98787.50
2023-01-05T16:54:27.924Z,98798.31
2023-01-05T16:57:04.509Z,98790.56
2023-01-05T16:59:33.793Z,98794.72
2023-01-05T17:02:00.761Z,98791.25
2023-01-05T17:04:27.344Z,98787.31
2023-01-05T17:06:54.283Z,98807.00
2023-01-05T17:09:26.957Z,98783.38
2023-01-05T17:11:54.069Z,98789.91
2023-01-05T17:14:22.633Z,98787.13
2023-01-05T17:16:49.211Z,98775.16
2023-01-05T17:19:23.165Z,98778.66
2023-01-05T17:21:56.582Z,98777.97
2023-01-05T17:24:31.207Z,98769.41
2023-01-05T17:26:58.014Z,98775.50
2023-01-05T17:29:27.737Z,98771.94
2023-01-05T17:31:56.734Z,98783.78
2023-01-05T17:34:23.794Z,98780.66
2023-01-05T17:36:54.928Z,98774.44
2023-01-05T17:39:24.509Z,98784.72
2023-01-05T17:41:53.383Z,98780.34
2023-01-05T17:44:19.880Z,98781.38
2023-01-05T17:46:50.479Z,98776.22
2023-01-05T17:49:20.867Z,98776.00
2023-01-05T17:51:47.676Z,98779.75
2023-01-05T17:54:14.396Z,98781.00
2023-01-05T17:56:40.899Z,98781.16
2023-01-05T17:59:07.638Z,98781.25
2023-01-05T18:01:36.214Z,98786.44
2023-01-05T18:04:02.864Z,98783.53
2023-01-05T18:06:29.710Z,98786.00
2023-01-05T18:08:56.452Z,98778.44
2023-01-05T18:11:22.940Z,98775.19
2023-01-05T18:13:49.649Z,98783.06
2023-01-05T18:16:18.540Z,98780.16
2023-01-05T18:18:45.199Z,98779.47
2023-01-05T18:21:11.944Z,98778.91
2023-01-05T18:23:39.129Z,98779.00
2023-01-05T18:26:09.051Z,98778.78
2023-01-05T18:28:36.746Z,98786.28
2023-01-05T18:31:18.165Z,98768.44
2023-01-05T18:33:44.772Z,98768.63
2023-01-05T18:36:13.912Z,98757.41
2023-01-05T18:38:41.439Z,98760.44
2023-01-05T18:41:08.494Z,98755.38
2023-01-05T18:43:35.683Z,98757.63
2023-01-05T18:46:13.086Z,98761.75
2023-01-05T18:48:40.093Z,98757.84
2023-01-05T18:51:09.241Z,98753.09
2023-01-05T18:53:39.034Z,98759.63
2023-01-05T18:56:07.789Z,98754.59
2023-01-05T18:58:34.628Z,98754.44
2023-01-05T19:01:07.189Z,98755.13
2023-01-05T19:03:34.277Z,98751.94
2023-01-05T19:06:17.760Z,98752.28
2023-01-05T19:08:52.038Z,98752.44
2023-01-05T19:11:27.240Z,98756.69
2023-01-05T19:14:00.133Z,98753.00
2023-01-05T19:16:31.712Z,98750.41
2023-01-05T19:19:05.102Z,98752.47
2023-01-05T19:21:33.355Z,98749.44
2023-01-05T19:24:01.349Z,98753.38
2023-01-05T19:26:30.641Z,98741.00
2023-01-05T19:28:59.583Z,98744.13
2023-01-05T19:31:28.002Z,98742.59
2023-01-05T19:33:58.901Z,98746.84
2023-01-05T19:36:34.142Z,98742.25
2023-01-05T19:39:02.741Z,98745.72
2023-01-05T19:41:30.337Z,98740.34
2023-01-05T19:44:01.461Z,98734.94
2023-01-05T19:46:28.994Z,98738.41
2023-01-05T19:48:56.584Z,98731.13
2023-01-05T19:51:27.910Z,98730.66
2023-01-05T19:53:57.432Z,98728.78
2023-01-05T19:56:27.036Z,98736.38
2023-01-05T19:58:58.818Z,98728.66
2023-01-05T20:01:27.053Z,98724.03
2023-01-05T20:03:55.161Z,98723.25
2023-01-05T20:06:24.973Z,98721.81
2023-01-05T20:08:53.775Z,98719.09
2023-01-05T20:11:45.335Z,98722.13
2023-01-05T20:14:14.404Z,98711.69
2023-01-05T20:16:49.331Z,98710.88
2023-01-05T20:19:16.872Z,98709.22
2023-01-05T20:21:43.352Z,98715.28
2023-01-05T20:24:18.960Z,98712.78
2023-01-05T20:26:46.650Z,98717.59
2023-01-05T20:29:15.265Z,98713.22
2023-01-05T20:31:47.236Z,98710.06
2023-01-05T20:34:17.733Z,98709.19
2023-01-05T20:36:45.114Z,98709.03
2023-01-05T20:39:14.576Z,98709.38
2023-01-05T20:41:43.016Z,98706.56
2023-01-05T20:44:11.795Z,98698.38
2023-01-05T20:46:47.742Z,98699.81
2023-01-05T20:49:15.309Z,98698.91
2023-01-05T20:51:42.781Z,98709.22
2023-01-05T20:54:10.892Z,98702.59
2023-01-05T20:56:39.993Z,98708.31
2023-01-05T20:59:12.269Z,98707.41
2023-01-05T21:01:38.979Z,98706.94
2023-01-05T21:04:06.356Z,98704.91
2023-01-05T21:06:35.414Z,98711.72
2023-01-05T21:09:02.524Z,98713.97
2023-01-05T21:11:29.679Z,98705.31
2023-01-05T21:13:59.456Z,98703.97
2023-01-05T21:16:29.419Z,98690.88
2023-01-05T21:18:56.918Z,98694.91
2023-01-05T21:21:27.572Z,98698.25
2023-01-05T21:23:54.984Z,98699.53
2023-01-05T21:26:22.547Z,98697.06
2023-01-05T21:28:51.212Z,98700.41
2023-01-05T21:31:21.557Z,98695.88
2023-01-05T21:33:48.448Z,98696.84
2023-01-05T21:36:18.965Z,98697.06
2023-01-05T21:39:01.967Z,98692.19
2023-01-05T21:41:51.852Z,98684.44
2023-01-05T21:44:20.026Z,98692.56
2023-01-05T21:46:47.955Z,98691.16
2023-01-05T21:49:19.125Z,98686.00
2023-01-05T21:52:04.845Z,98682.06
2023-01-05T21:54:49.943Z,98676.38
2023-01-05T21:57:16.985Z,98678.47
2023-01-05T21:59:43.617Z,98671.22
2023-01-05T22:02:16.554Z,98669.97
2023-01-05T22:04:43.868Z,98668.25
2023-01-05T22:07:10.744Z,98659.38
2023-01-05T22:09:42.285Z,98662.41
2023-01-05T22:12:09.116Z,98659.25
2023-01-05T22:14:37.361Z,98654.06
2023-01-05T22:17:07.453Z,98651.41
2023-01-05T22:19:34.736Z,98656.06
2023-01-05T22:22:01.515Z,98653.06
2023-01-05T22:24:29.718Z,98645.50
2023-01-05T22:26:56.702Z,98647.06
2023-01-05T22:29:23.496Z,98650.41
2023-01-05T22:32:03.117Z,98654.38
2023-01-05T22:34:30.722Z,98663.25
2023-01-05T22:36:57.389Z,98669.25
2023-01-05T22:39:24.292Z,98665.75
2023-01-05T22:41:51.159Z,98660.72
2023-01-05T22:44:17.722Z,98664.03
2023-01-05T22:46:46.419Z,98660.09
2023-01-05T22:49:14.267Z,98662.16
2023-01-05T22:51:44.794Z,98657.41
2023-01-05T22:54:13.745Z,98661.84
2023-01-05T22:56:40.408Z,98665.03
2023-01-05T22:59:07.457Z,98657.13
2023-01-05T23:01:39.272Z,98655.56
2023-01-05T23:04:07.163Z,98661.88
2023-01-05T23:06:34.500Z,98653.97
2023-01-05T23:09:03.437Z,98642.16
2023-01-05T23:11:32.342Z,98653.53
2023-01-05T23:14:00.461Z,98647.88
2023-01-05T23:16:30.493Z,98643.44
2023-01-05T23:18:57.337Z,98632.06
2023-01-05T23:21:25.644Z,98627.34
2023-01-05T23:23:54.004Z,98627.34
2023-01-05T23:26:21.099Z,98624.66
2023-01-05T23:28:48.037Z,98624.66
2023-01-05T23:31:18.081Z,98618.03
2023-01-05T23:33:45.454Z,98620.56
2023-01-05T23:36:14.039Z,98620.25
2023-01-05T23:38:42.269Z,98610.19
2023-01-05T23:41:11.512Z,98621.03
2023-01-05T23:43:39.435Z,98612.06
2023-01-05T23:46:16.705Z,98601.34
2023-01-05T23:48:43.818Z,98602.28
2023-01-05T23:51:13.643Z,98601.47
2023-01-05T23:53:43.820Z,98596.75
2023-01-05T23:56:19.594Z,98595.16
2023-01-05T23:58:48.197Z,98590.63
